createdAt,value
2022-08-24T00:00:31.202Z,74.50
2022-08-24T00:01:05.521Z,74.20
2022-08-24T00:01:38.764Z,74.22
2022-08-24T00:02:11.944Z,73.75
2022-08-24T00:02:45.968Z,74.95
2022-08-24T00:03:20.018Z,74.85
2022-08-24T00:03:55.154Z,75.13
2022-08-24T00:04:31.955Z,74.82
2022-08-24T00:05:06.297Z,73.40
2022-08-24T00:05:38.834Z,73.80
2022-08-24T00:06:15.924Z,74.15
2022-08-24T00:06:49.899Z,74.60
2022-08-24T00:07:27.686Z,74.03
2022-08-24T00:08:02.658Z,74.07
2022-08-24T00:08:36.187Z,74.93
2022-08-24T00:09:08.782Z,73.93
2022-08-24T00:09:41.674Z,74.28
2022-08-24T00:10:15.614Z,74.18
2022-08-24T00:10:48.448Z,73.90
2022-08-24T00:11:21.598Z,74.15
2022-08-24T00:11:55.238Z,74.82
2022-08-24T00:12:28.748Z,75.25
2022-08-24T00:13:01.422Z,75.50
2022-08-24T00:13:37.285Z,74.25
2022-08-24T00:14:12.105Z,74.03
2022-08-24T00:14:49.369Z,74.38
2022-08-24T00:15:22.440Z,73.75
2022-08-24T00:15:55.550Z,74.07
2022-08-24T00:16:29.456Z,75.72
2022-08-24T00:17:02.458Z,74.55
2022-08-24T00:17:35.050Z,74.80
2022-08-24T00:18:10.449Z,73.80
2022-08-24T00:18:45.312Z,73.90
2022-08-24T00:19:18.192Z,74.40
2022-08-24T00:19:51.986Z,74.18
2022-08-24T00:20:24.844Z,74.45
2022-08-24T00:20:57.378Z,74.93
2022-08-24T00:21:31.004Z,74.95
2022-08-24T00:22:03.714Z,73.82
2022-08-24T00:22:36.642Z,74.03
2022-08-24T00:23:10.154Z,74.18
2022-08-24T00:23:42.988Z,74.28
2022-08-24T00:24:15.578Z,74.22
2022-08-24T00:24:48.165Z,73.75
2022-08-24T00:25:21.784Z,73.40
2022-08-24T00:25:54.592Z,73.55
2022-08-24T00:26:28.652Z,73.90
2022-08-24T00:27:03.015Z,73.60
2022-08-24T00:27:37.225Z,72.95
2022-08-24T00:28:10.066Z,73.18
2022-08-24T00:28:43.727Z,73.53
2022-08-24T00:29:19.885Z,73.40
2022-08-24T00:29:52.445Z,74.00
2022-08-24T00:30:26.566Z,73.50
2022-08-24T00:30:59.227Z,73.18
2022-08-24T00:31:31.942Z,73.00
2022-08-24T00:32:04.939Z,73.35
2022-08-24T00:32:38.737Z,74.03
2022-08-24T00:33:11.303Z,73.68
2022-08-24T00:33:45.650Z,74.43
2022-08-24T00:34:19.216Z,73.40
2022-08-24T00:34:58.548Z,74.18
2022-08-24T00:35:32.238Z,73.00
2022-08-24T00:36:06.541Z,73.75
2022-08-24T00:36:39.042Z,73.10
2022-08-24T00:37:11.610Z,73.45
2022-08-24T00:37:45.531Z,73.85
2022-08-24T00:38:18.224Z,73.20
2022-08-24T00:38:51.426Z,72.95
2022-08-24T00:39:25.505Z,72.32
2022-08-24T00:39:59.435Z,72.68
2022-08-24T00:40:35.280Z,72.60
2022-08-24T00:41:08.366Z,72.45
2022-08-24T00:41:43.886Z,73.55
2022-08-24T00:42:16.408Z,72.95
2022-08-24T00:42:49.240Z,72.72
2022-08-24T00:43:25.186Z,72.90
2022-08-24T00:44:02.678Z,73.13
2022-08-24T00:44:35.458Z,72.88
2022-08-24T00:45:12.427Z,72.95
2022-08-24T00:45:50.419Z,73.13
2022-08-24T00:46:28.883Z,73.18
2022-08-24T00:47:05.776Z,73.53
2022-08-24T00:47:47.939Z,73.55
2022-08-24T00:48:24.512Z,73.22
2022-08-24T00:49:05.148Z,74.25
2022-08-24T00:49:41.956Z,74.93
2022-08-24T00:50:20.559Z,74.05
2022-08-24T00:50:58.241Z,73.78
2022-08-24T00:51:36.216Z,74.07
2022-08-24T00:52:14.978Z,73.00
2022-08-24T00:52:51.612Z,73.10
2022-08-24T00:53:27.062Z,74.60
2022-08-24T00:54:03.868Z,74.05
2022-08-24T00:54:45.411Z,73.13
2022-08-24T00:55:23.974Z,73.13
2022-08-24T00:56:01.879Z,73.15
2022-08-24T00:56:37.937Z,74.55
2022-08-24T00:57:12.042Z,73.25
2022-08-24T00:57:49.264Z,73.82
2022-08-24T00:58:28.184Z,73.40
2022-08-24T00:59:07.673Z,73.43
2022-08-24T00:59:43.577Z,74.45
2022-08-24T01:00:21.477Z,75.03
2022-08-24T01:00:57.778Z,74.53
2022-08-24T01:01:33.686Z,74.47
2022-08-24T01:02:15.414Z,74.77
2022-08-24T01:02:52.325Z,73.50
2022-08-24T01:03:26.814Z,73.38
2022-08-24T01:04:02.071Z,74.38
2022-08-24T01:04:42.272Z,74.78
2022-08-24T01:05:16.407Z,74.70
2022-08-24T01:05:49.870Z,74.53
2022-08-24T01:06:22.394Z,73.88
2022-08-24T01:06:55.242Z,74.47
2022-08-24T01:07:32.147Z,73.65
2022-08-24T01:08:07.717Z,72.93
2022-08-24T01:08:41.019Z,73.73
2022-08-24T01:09:14.482Z,72.35
2022-08-24T01:09:50.144Z,74.05
2022-08-24T01:10:25.954Z,73.43
2022-08-24T01:11:04.530Z,73.47
2022-08-24T01:11:37.146Z,74.68
2022-08-24T01:12:10.250Z,73.50
2022-08-24T01:12:59.923Z,73.65
2022-08-24T01:13:34.524Z,73.47
2022-08-24T01:14:07.915Z,73.22
2022-08-24T01:14:43.224Z,73.47
2022-08-24T01:15:16.510Z,72.72
2022-08-24T01:15:53.488Z,74.32
2022-08-24T01:16:45.086Z,74.53
2022-08-24T01:17:39.040Z,73.93
2022-08-24T01:18:35.647Z,74.40
2022-08-24T01:19:18.224Z,73.40
2022-08-24T01:19:54.343Z,73.80
2022-08-24T01:20:27.119Z,74.18
2022-08-24T01:21:06.996Z,73.28
2022-08-24T01:21:45.144Z,73.43
2022-08-24T01:22:29.850Z,73.43
2022-08-24T01:23:08.095Z,73.43
2022-08-24T01:23:44.310Z,73.22
2022-08-24T01:24:17.154Z,73.82
2022-08-24T01:24:49.705Z,73.03
2022-08-24T01:25:25.358Z,73.68
2022-08-24T01:25:57.886Z,72.88
2022-08-24T01:26:35.506Z,73.13
2022-08-24T01:27:14.476Z,73.50
2022-08-24T01:27:49.962Z,73.22
2022-08-24T01:28:27.779Z,72.68
2022-08-24T01:29:05.609Z,73.05
2022-08-24T01:29:38.933Z,73.00
2022-08-24T01:30:14.495Z,72.95
2022-08-24T01:30:49.801Z,72.55
2022-08-24T01:31:23.544Z,74.00
2022-08-24T01:31:56.492Z,72.68
2022-08-24T01:32:30.001Z,72.45
2022-08-24T01:33:05.950Z,72.05
2022-08-24T01:33:38.495Z,71.78
2022-08-24T01:34:13.750Z,72.35
2022-08-24T01:34:46.440Z,72.40
2022-08-24T01:35:18.962Z,73.03
2022-08-24T01:35:58.572Z,72.50
2022-08-24T01:36:36.131Z,72.60
2022-08-24T01:37:11.228Z,72.90
2022-08-24T01:37:47.204Z,72.60
2022-08-24T01:38:19.854Z,73.32
2022-08-24T01:38:55.334Z,73.20
2022-08-24T01:39:31.965Z,72.43
2022-08-24T01:40:07.944Z,72.57
2022-08-24T01:40:45.888Z,72.18
2022-08-24T01:41:19.468Z,72.30
2022-08-24T01:41:51.990Z,71.40
2022-08-24T01:42:26.581Z,72.43
2022-08-24T01:42:59.116Z,72.45
2022-08-24T01:43:31.764Z,72.28
2022-08-24T01:44:12.668Z,72.25
2022-08-24T01:44:46.731Z,72.18
2022-08-24T01:45:20.601Z,71.28
2022-08-24T01:45:54.564Z,71.63
2022-08-24T01:46:27.161Z,72.43
2022-08-24T01:46:59.821Z,71.55
2022-08-24T01:47:33.493Z,72.07
2022-08-24T01:48:06.436Z,71.37
2022-08-24T01:48:38.976Z,71.25
2022-08-24T01:49:13.280Z,72.80
2022-08-24T01:49:48.002Z,72.03
2022-08-24T01:50:22.917Z,72.03
2022-08-24T01:50:57.176Z,72.15
2022-08-24T01:51:31.946Z,71.03
2022-08-24T01:52:06.519Z,73.15
2022-08-24T01:53:03.923Z,71.68
2022-08-24T01:53:35.212Z,71.57
2022-08-24T01:54:09.929Z,71.55
2022-08-24T01:54:43.758Z,71.07
2022-08-24T01:55:19.156Z,70.45
2022-08-24T01:55:55.654Z,72.68
2022-08-24T01:56:29.228Z,71.82
2022-08-24T01:57:03.944Z,72.07
2022-08-24T01:57:39.297Z,70.85
2022-08-24T01:58:13.601Z,71.63
2022-08-24T01:58:49.301Z,72.57
2022-08-24T01:59:23.795Z,71.90
2022-08-24T01:59:57.351Z,70.72
2022-08-24T02:00:31.545Z,71.38
2022-08-24T02:01:04.246Z,71.47
2022-08-24T02:01:41.110Z,71.25
2022-08-24T02:02:16.381Z,72.05
2022-08-24T02:02:49.227Z,71.63
2022-08-24T02:03:27.688Z,71.45
2022-08-24T02:04:04.877Z,71.05
2022-08-24T02:04:37.990Z,72.25
2022-08-24T02:05:14.756Z,71.40
2022-08-24T02:05:49.380Z,71.20
2022-08-24T02:06:22.896Z,70.73
2022-08-24T02:06:55.481Z,70.78
2022-08-24T02:07:29.727Z,71.45
2022-08-24T02:08:03.374Z,70.43
2022-08-24T02:08:36.255Z,71.40
2022-08-24T02:09:10.140Z,70.55
2022-08-24T02:09:45.140Z,71.28
2022-08-24T02:10:20.848Z,70.97
2022-08-24T02:10:56.955Z,70.70
2022-08-24T02:11:31.181Z,69.95
2022-08-24T02:12:06.283Z,70.97
2022-08-24T02:12:41.942Z,69.93
2022-08-24T02:13:15.898Z,71.10
2022-08-24T02:13:48.433Z,70.88
2022-08-24T02:14:21.455Z,70.32
2022-08-24T02:14:55.025Z,71.10
2022-08-24T02:15:30.747Z,69.97
2022-08-24T02:16:03.846Z,70.45
2022-08-24T02:16:40.007Z,70.10
2022-08-24T02:17:13.385Z,70.28
2022-08-24T02:17:45.934Z,70.15
2022-08-24T02:18:19.896Z,71.20
2022-08-24T02:18:52.390Z,70.35
2022-08-24T02:19:25.509Z,70.60
2022-08-24T02:19:59.008Z,70.78
2022-08-24T02:20:31.597Z,70.68
2022-08-24T02:21:04.248Z,71.15
2022-08-24T02:21:37.844Z,70.28
2022-08-24T02:22:12.200Z,70.22
2022-08-24T02:22:45.951Z,70.85
2022-08-24T02:23:18.786Z,70.30
2022-08-24T02:23:51.931Z,70.50
2022-08-24T02:24:26.808Z,70.75
2022-08-24T02:24:59.921Z,70.35
2022-08-24T02:25:32.644Z,70.28
2022-08-24T02:26:07.460Z,70.28
2022-08-24T02:26:40.750Z,70.60
2022-08-24T02:27:14.456Z,71.65
2022-08-24T02:27:48.119Z,71.47
2022-08-24T02:28:21.230Z,70.32
2022-08-24T02:28:54.530Z,71.10
2022-08-24T02:29:29.022Z,70.63
2022-08-24T02:30:01.992Z,71.65
2022-08-24T02:30:34.546Z,70.18
2022-08-24T02:31:09.716Z,69.47
2022-08-24T02:31:42.252Z,70.05
2022-08-24T02:32:15.216Z,70.67
2022-08-24T02:32:48.885Z,70.55
2022-08-24T02:33:23.566Z,70.43
2022-08-24T02:33:56.690Z,70.45
2022-08-24T02:34:29.542Z,70.82
2022-08-24T02:35:02.082Z,71.03
2022-08-24T02:35:35.978Z,70.07
2022-08-24T02:36:21.763Z,70.40
2022-08-24T02:36:59.952Z,69.97
2022-08-24T02:37:33.790Z,69.93
2022-08-24T02:38:09.086Z,69.97
2022-08-24T02:38:43.329Z,70.88
2022-08-24T02:39:22.744Z,70.25
2022-08-24T02:39:57.239Z,70.57
2022-08-24T02:40:32.391Z,69.88
2022-08-24T02:41:06.082Z,70.35
2022-08-24T02:41:38.838Z,69.95
2022-08-24T02:42:13.188Z,70.43
2022-08-24T02:42:46.008Z,70.30
2022-08-24T02:43:18.712Z,70.53
2022-08-24T02:43:53.122Z,69.80
2022-08-24T02:44:25.704Z,69.80
2022-08-24T02:45:00.896Z,70.25
2022-08-24T02:45:34.524Z,70.43
2022-08-24T02:46:07.687Z,70.28
2022-08-24T02:46:47.809Z,70.68
2022-08-24T02:47:20.426Z,70.45
2022-08-24T02:47:53.747Z,70.07
2022-08-24T02:48:29.141Z,69.70
2022-08-24T02:49:10.487Z,70.30
2022-08-24T02:49:44.846Z,70.20
2022-08-24T02:50:19.913Z,69.82
2022-08-24T02:50:52.912Z,69.53
2022-08-24T02:51:30.858Z,70.07
2022-08-24T02:52:17.532Z,70.03
2022-08-24T02:52:50.285Z,70.63
2022-08-24T02:53:23.840Z,69.90
2022-08-24T02:53:58.192Z,70.65
2022-08-24T02:54:31.380Z,69.25
2022-08-24T02:55:06.475Z,69.35
2022-08-24T02:55:41.329Z,70.43
2022-08-24T02:56:13.874Z,69.63
2022-08-24T02:56:47.136Z,69.85
2022-08-24T02:57:21.040Z,70.35
2022-08-24T02:57:54.114Z,70.35
2022-08-24T02:58:26.692Z,70.78
2022-08-24T02:59:00.311Z,70.80
2022-08-24T02:59:35.036Z,70.40
2022-08-24T03:00:13.886Z,70.18
2022-08-24T03:00:56.943Z,70.28
2022-08-24T03:01:30.744Z,70.97
2022-08-24T03:02:04.403Z,70.05
2022-08-24T03:02:38.175Z,70.85
2022-08-24T03:03:11.498Z,70.88
2022-08-24T03:03:44.834Z,71.20
2022-08-24T03:04:18.791Z,70.72
2022-08-24T03:04:51.509Z,70.32
2022-08-24T03:05:25.972Z,70.40
2022-08-24T03:06:00.064Z,70.45
2022-08-24T03:06:32.815Z,71.13
2022-08-24T03:07:05.866Z,70.78
2022-08-24T03:07:38.828Z,70.43
2022-08-24T03:08:12.541Z,70.43
2022-08-24T03:08:46.451Z,69.93
2022-08-24T03:09:29.029Z,70.28
2022-08-24T03:10:07.226Z,70.97
2022-08-24T03:10:39.924Z,70.38
2022-08-24T03:11:14.286Z,70.25
2022-08-24T03:11:47.806Z,69.60
2022-08-24T03:12:21.678Z,70.40
2022-08-24T03:12:58.987Z,70.53
2022-08-24T03:13:32.974Z,70.60
2022-08-24T03:14:07.984Z,70.45
2022-08-24T03:14:43.005Z,70.05
2022-08-24T03:15:15.787Z,70.78
2022-08-24T03:15:49.383Z,70.78
2022-08-24T03:16:22.036Z,70.32
2022-08-24T03:16:54.958Z,69.47
2022-08-24T03:17:30.914Z,70.65
2022-08-24T03:18:04.011Z,70.18
2022-08-24T03:18:37.213Z,69.78
2022-08-24T03:19:11.006Z,70.00
2022-08-24T03:19:44.641Z,70.10
2022-08-24T03:20:19.329Z,69.65
2022-08-24T03:20:52.856Z,70.20
2022-08-24T03:21:25.624Z,70.10
2022-08-24T03:21:58.427Z,70.50
2022-08-24T03:22:33.195Z,69.88
2022-08-24T03:23:05.932Z,70.68
2022-08-24T03:23:38.558Z,70.03
2022-08-24T03:24:12.114Z,70.03
2022-08-24T03:24:46.398Z,69.75
2022-08-24T03:25:24.655Z,69.90
2022-08-24T03:25:59.100Z,69.72
2022-08-24T03:26:31.569Z,70.53
2022-08-24T03:27:05.354Z,69.83
2022-08-24T03:27:38.668Z,69.80
2022-08-24T03:28:12.103Z,69.37
2022-08-24T03:28:46.998Z,70.13
2022-08-24T03:29:23.932Z,69.38
2022-08-24T03:29:57.146Z,69.72
2022-08-24T03:30:31.556Z,69.13
2022-08-24T03:31:05.898Z,68.85
2022-08-24T03:31:39.091Z,69.80
2022-08-24T03:32:13.608Z,69.93
2022-08-24T03:32:46.562Z,70.25
2022-08-24T03:33:20.365Z,68.97
2022-08-24T03:33:54.551Z,69.07
2022-08-24T03:34:27.601Z,69.57
2022-08-24T03:35:00.135Z,69.07
2022-08-24T03:35:33.905Z,69.20
2022-08-24T03:36:09.166Z,69.65
2022-08-24T03:36:47.332Z,69.72
2022-08-24T03:37:21.372Z,69.03
2022-08-24T03:37:54.811Z,69.40
2022-08-24T03:38:28.388Z,69.30
2022-08-24T03:39:01.662Z,68.63
2022-08-24T03:39:34.759Z,68.57
2022-08-24T03:40:22.544Z,68.97
2022-08-24T03:40:59.903Z,69.13
2022-08-24T03:41:33.793Z,69.22
2022-08-24T03:42:09.790Z,68.82
2022-08-24T03:42:42.300Z,69.18
2022-08-24T03:43:29.904Z,69.03
2022-08-24T03:44:04.557Z,68.47
2022-08-24T03:44:37.226Z,68.88
2022-08-24T03:45:10.721Z,68.75
2022-08-24T03:45:46.740Z,69.72
2022-08-24T03:46:22.281Z,69.45
2022-08-24T03:46:59.132Z,68.90
2022-08-24T03:47:33.445Z,68.30
2022-08-24T03:48:08.209Z,69.35
2022-08-24T03:48:42.827Z,69.05
2022-08-24T03:49:15.618Z,68.78
2022-08-24T03:49:50.726Z,69.07
2022-08-24T03:50:24.549Z,68.32
2022-08-24T03:50:57.566Z,68.38
2022-08-24T03:51:31.681Z,68.80
2022-08-24T03:52:04.519Z,68.28
2022-08-24T03:52:37.035Z,68.88
2022-08-24T03:53:10.566Z,68.05
2022-08-24T03:53:43.805Z,69.22
2022-08-24T03:54:17.185Z,69.25
2022-08-24T03:54:50.885Z,69.03
2022-08-24T03:55:23.506Z,68.88
2022-08-24T03:55:56.475Z,68.45
2022-08-24T03:56:31.683Z,68.72
2022-08-24T03:57:04.420Z,68.45
2022-08-24T03:57:37.888Z,68.88
2022-08-24T03:58:11.522Z,68.55
2022-08-24T03:58:44.714Z,68.05
2022-08-24T03:59:20.064Z,68.28
2022-08-24T03:59:55.043Z,68.57
2022-08-24T04:00:27.551Z,68.50
2022-08-24T04:01:05.712Z,68.05
2022-08-24T04:01:39.099Z,68.78
2022-08-24T04:02:14.719Z,68.00
2022-08-24T04:02:48.602Z,68.70
2022-08-24T04:03:25.095Z,68.50
2022-08-24T04:04:00.355Z,68.75
2022-08-24T04:04:37.973Z,68.75
2022-08-24T04:05:12.254Z,68.30
2022-08-24T04:05:45.102Z,67.60
2022-08-24T04:06:20.481Z,68.93
2022-08-24T04:06:53.408Z,67.78
2022-08-24T04:07:26.572Z,67.80
2022-08-24T04:08:00.261Z,68.00
2022-08-24T04:08:33.599Z,69.53
2022-08-24T04:09:07.838Z,68.32
2022-08-24T04:09:44.976Z,67.30
2022-08-24T04:10:17.677Z,68.50
2022-08-24T04:10:50.159Z,68.28
2022-08-24T04:11:28.923Z,68.07
2022-08-24T04:12:03.734Z,68.70
2022-08-24T04:12:36.363Z,68.32
2022-08-24T04:13:10.004Z,67.80
2022-08-24T04:13:43.128Z,68.18
2022-08-24T04:14:26.946Z,68.10
2022-08-24T04:15:21.098Z,68.13
2022-08-24T04:15:54.079Z,68.45
2022-08-24T04:16:27.728Z,69.10
2022-08-24T04:17:11.851Z,67.82
2022-08-24T04:17:47.841Z,68.60
2022-08-24T04:18:20.675Z,67.95
2022-08-24T04:18:54.729Z,68.47
2022-08-24T04:19:28.119Z,67.82
2022-08-24T04:20:02.956Z,68.60
2022-08-24T04:20:42.468Z,68.13
2022-08-24T04:21:21.377Z,68.72
2022-08-24T04:21:54.093Z,67.90
2022-08-24T04:22:29.693Z,68.22
2022-08-24T04:23:02.638Z,67.93
2022-08-24T04:23:46.647Z,68.72
2022-08-24T04:24:21.470Z,68.10
2022-08-24T04:24:54.838Z,68.15
2022-08-24T04:25:27.500Z,67.20
2022-08-24T04:26:05.414Z,68.88
2022-08-24T04:26:45.702Z,68.00
2022-08-24T04:27:21.880Z,67.80
2022-08-24T04:27:55.870Z,68.78
2022-08-24T04:28:28.635Z,68.38
2022-08-24T04:29:02.362Z,67.85
2022-08-24T04:29:41.738Z,68.20
2022-08-24T04:30:15.606Z,68.43
2022-08-24T04:31:08.880Z,67.55
2022-08-24T04:31:48.550Z,68.28
2022-08-24T04:32:21.575Z,68.13
2022-08-24T04:32:54.213Z,68.60
2022-08-24T04:33:27.706Z,68.25
2022-08-24T04:34:01.137Z,68.00
2022-08-24T04:34:33.904Z,68.50
2022-08-24T04:35:09.055Z,68.85
2022-08-24T04:35:43.275Z,67.60
2022-08-24T04:36:17.828Z,68.47
2022-08-24T04:36:51.315Z,68.00
2022-08-24T04:37:28.193Z,68.25
2022-08-24T04:38:03.031Z,68.53
2022-08-24T04:38:37.598Z,68.00
2022-08-24T04:39:33.690Z,67.88
2022-08-24T04:40:39.546Z,68.00
2022-08-24T04:41:13.798Z,67.25
2022-08-24T04:41:47.603Z,67.63
2022-08-24T04:42:25.998Z,67.25
2022-08-24T04:42:59.831Z,67.60
2022-08-24T04:43:33.665Z,68.80
2022-08-24T04:44:06.189Z,69.00
2022-08-24T04:44:38.790Z,67.50
2022-08-24T04:45:12.440Z,68.15
2022-08-24T04:45:48.012Z,67.43
2022-08-24T04:46:21.057Z,67.90
2022-08-24T04:46:56.681Z,68.65
2022-08-24T04:47:29.484Z,67.75
2022-08-24T04:48:02.095Z,68.18
2022-08-24T04:48:37.172Z,67.70
2022-08-24T04:49:09.780Z,69.40
2022-08-24T04:49:43.135Z,68.43
2022-08-24T04:50:16.733Z,68.60
2022-08-24T04:51:01.475Z,69.00
2022-08-24T04:51:36.647Z,68.33
2022-08-24T04:52:10.613Z,68.13
2022-08-24T04:52:44.437Z,68.28
2022-08-24T04:53:21.665Z,69.40
2022-08-24T04:53:57.488Z,69.32
2022-08-24T04:54:30.026Z,67.90
2022-08-24T04:55:12.566Z,68.95
2022-08-24T04:55:49.061Z,68.30
2022-08-24T04:56:23.961Z,68.68
2022-08-24T04:56:57.989Z,69.72
2022-08-24T04:57:34.039Z,68.65
2022-08-24T04:58:06.715Z,69.68
2022-08-24T04:58:40.248Z,69.72
2022-08-24T04:59:15.583Z,68.43
2022-08-24T04:59:48.498Z,69.50
2022-08-24T05:00:21.402Z,68.90
2022-08-24T05:00:55.201Z,68.47
2022-08-24T05:01:29.689Z,69.72
2022-08-24T05:02:03.166Z,68.90
2022-08-24T05:02:44.559Z,69.53
2022-08-24T05:03:18.193Z,70.10
2022-08-24T05:03:54.312Z,70.00
2022-08-24T05:04:27.948Z,70.17
2022-08-24T05:05:03.425Z,70.40
2022-08-24T05:05:40.597Z,70.55
2022-08-24T05:06:15.390Z,70.63
2022-08-24T05:06:48.078Z,69.60
2022-08-24T05:07:26.672Z,69.55
2022-08-24T05:08:00.189Z,70.30
2022-08-24T05:08:33.797Z,72.18
2022-08-24T05:09:08.518Z,70.35
2022-08-24T05:09:41.463Z,71.78
2022-08-24T05:10:15.053Z,71.10
2022-08-24T05:10:51.809Z,71.25
2022-08-24T05:11:29.801Z,72.05
2022-08-24T05:12:02.555Z,71.60
2022-08-24T05:12:44.266Z,71.55
2022-08-24T05:13:17.772Z,71.57
2022-08-24T05:13:53.190Z,70.55
2022-08-24T05:14:28.937Z,71.50
2022-08-24T05:15:01.997Z,71.75
2022-08-24T05:15:42.943Z,71.10
2022-08-24T05:16:18.861Z,71.10
2022-08-24T05:16:53.216Z,71.18
2022-08-24T05:17:27.965Z,71.65
2022-08-24T05:18:01.885Z,72.43
2022-08-24T05:18:35.234Z,74.18
2022-08-24T05:19:07.887Z,73.22
2022-08-24T05:19:43.609Z,74.57
2022-08-24T05:20:17.491Z,74.25
2022-08-24T05:20:50.331Z,75.50
2022-08-24T05:21:25.935Z,74.68
2022-08-24T05:22:00.900Z,76.88
2022-08-24T05:22:35.285Z,75.93
2022-08-24T05:23:10.362Z,75.75
2022-08-24T05:23:45.336Z,75.50
2022-08-24T05:24:19.641Z,76.05
2022-08-24T05:24:53.561Z,75.63
2022-08-24T05:25:26.533Z,76.35
2022-08-24T05:26:06.049Z,76.32
2022-08-24T05:26:40.480Z,75.82
2022-08-24T05:27:14.911Z,76.07
2022-08-24T05:27:51.644Z,76.53
2022-08-24T05:28:25.279Z,76.43
2022-08-24T05:29:01.474Z,76.70
2022-08-24T05:29:42.675Z,76.43
2022-08-24T05:30:17.375Z,75.95
2022-08-24T05:30:51.179Z,75.18
2022-08-24T05:31:27.272Z,76.95
2022-08-24T05:32:02.230Z,75.97
2022-08-24T05:32:35.619Z,77.03
2022-08-24T05:33:08.678Z,77.00
2022-08-24T05:33:42.673Z,75.72
2022-08-24T05:34:15.409Z,75.93
2022-08-24T05:34:49.565Z,76.53
2022-08-24T05:35:22.309Z,75.43
2022-08-24T05:35:54.862Z,75.70
2022-08-24T05:36:30.635Z,76.18
2022-08-24T05:37:04.765Z,75.93
2022-08-24T05:37:46.471Z,76.05
2022-08-24T05:38:20.275Z,75.80
2022-08-24T05:38:55.517Z,74.97
2022-08-24T05:39:28.880Z,76.28
2022-08-24T05:40:04.073Z,75.78
2022-08-24T05:40:37.919Z,75.20
2022-08-24T05:41:11.017Z,76.22
2022-08-24T05:41:46.337Z,75.65
2022-08-24T05:42:25.156Z,75.72
2022-08-24T05:43:00.249Z,75.78
2022-08-24T05:43:32.883Z,76.55
2022-08-24T05:44:06.440Z,75.78
2022-08-24T05:44:40.396Z,74.78
2022-08-24T05:45:13.591Z,75.53
2022-08-24T05:45:46.193Z,74.93
2022-08-24T05:46:21.714Z,76.03
2022-08-24T05:46:55.794Z,75.60
2022-08-24T05:47:28.808Z,74.32
2022-08-24T05:48:06.219Z,75.95
2022-08-24T05:48:58.238Z,75.53
2022-08-24T05:49:41.369Z,74.72
2022-08-24T05:50:17.321Z,74.20
2022-08-24T05:50:54.445Z,74.93
2022-08-24T05:51:29.744Z,74.10
2022-08-24T05:52:08.140Z,74.25
2022-08-24T05:52:41.941Z,74.95
2022-08-24T05:53:14.491Z,75.45
2022-08-24T05:53:49.769Z,74.45
2022-08-24T05:54:26.815Z,75.38
2022-08-24T05:55:06.628Z,75.18
2022-08-24T05:55:39.304Z,75.10
2022-08-24T05:56:16.052Z,75.07
2022-08-24T05:56:49.357Z,74.53
2022-08-24T05:57:22.787Z,74.70
2022-08-24T05:58:07.914Z,73.78
2022-08-24T05:58:44.235Z,74.15
2022-08-24T05:59:19.106Z,74.70
2022-08-24T05:59:54.430Z,74.00
2022-08-24T06:00:27.883Z,75.25
2022-08-24T06:01:05.293Z,74.53
2022-08-24T06:01:43.338Z,74.25
2022-08-24T06:02:18.917Z,74.13
2022-08-24T06:02:52.972Z,74.80
2022-08-24T06:03:27.960Z,74.43
2022-08-24T06:04:01.467Z,74.15
2022-08-24T06:04:34.338Z,75.35
2022-08-24T06:05:08.356Z,74.47
2022-08-24T06:05:42.063Z,74.55
2022-08-24T06:06:16.192Z,73.40
2022-08-24T06:06:51.321Z,73.53
2022-08-24T06:07:24.090Z,74.28
2022-08-24T06:08:01.731Z,73.65
2022-08-24T06:08:41.251Z,73.85
2022-08-24T06:09:15.530Z,74.13
2022-08-24T06:09:49.117Z,73.22
2022-08-24T06:10:36.467Z,73.80
2022-08-24T06:11:11.315Z,73.85
2022-08-24T06:11:46.893Z,73.78
2022-08-24T06:12:20.391Z,73.22
2022-08-24T06:12:52.934Z,73.30
2022-08-24T06:13:27.938Z,73.60
2022-08-24T06:14:02.564Z,73.25
2022-08-24T06:14:45.871Z,73.97
2022-08-24T06:15:18.797Z,73.28
2022-08-24T06:16:20.451Z,74.25
2022-08-24T06:16:55.201Z,73.55
2022-08-24T06:17:28.272Z,74.30
2022-08-24T06:18:03.558Z,74.18
2022-08-24T06:18:37.844Z,73.78
2022-08-24T06:19:14.542Z,74.25
2022-08-24T06:19:47.855Z,73.63
2022-08-24T06:20:21.512Z,74.80
2022-08-24T06:20:57.198Z,73.55
2022-08-24T06:21:32.526Z,73.35
2022-08-24T06:22:06.128Z,73.43
2022-08-24T06:22:39.486Z,74.85
2022-08-24T06:23:11.960Z,74.28
2022-08-24T06:23:52.166Z,74.80
2022-08-24T06:24:45.644Z,73.20
2022-08-24T06:25:37.204Z,73.40
2022-08-24T06:26:29.190Z,73.00
2022-08-24T06:27:20.324Z,73.22
2022-08-24T06:27:53.937Z,74.10
2022-08-24T06:28:27.894Z,73.68
2022-08-24T06:29:00.803Z,73.78
2022-08-24T06:29:36.062Z,74.35
2022-08-24T06:30:30.267Z,74.43
2022-08-24T06:31:16.748Z,73.28
2022-08-24T06:31:54.363Z,72.88
2022-08-24T06:32:28.030Z,74.53
2022-08-24T06:33:02.042Z,72.78
2022-08-24T06:33:44.494Z,74.10
2022-08-24T06:34:18.732Z,74.18
2022-08-24T06:34:52.688Z,73.82
2022-08-24T06:35:25.468Z,74.28
2022-08-24T06:35:58.342Z,75.07
2022-08-24T06:36:32.550Z,74.22
2022-08-24T06:37:05.265Z,73.65
2022-08-24T06:37:38.753Z,73.13
2022-08-24T06:38:12.826Z,75.20
2022-08-24T06:38:45.656Z,74.22
2022-08-24T06:39:21.125Z,74.18
2022-08-24T06:39:55.966Z,74.28
2022-08-24T06:40:30.229Z,72.35
2022-08-24T06:41:03.732Z,75.32
2022-08-24T06:41:36.532Z,74.35
2022-08-24T06:42:14.503Z,74.80
2022-08-24T06:42:50.309Z,73.82
2022-08-24T06:43:35.678Z,73.90
2022-08-24T06:44:16.802Z,75.15
2022-08-24T06:44:54.468Z,73.88
2022-08-24T06:45:29.742Z,74.78
2022-08-24T06:46:06.257Z,74.32
2022-08-24T06:46:45.477Z,73.75
2022-08-24T06:47:19.786Z,73.57
2022-08-24T06:47:54.188Z,73.38
2022-08-24T06:48:27.020Z,75.07
2022-08-24T06:49:00.961Z,73.75
2022-08-24T06:49:33.529Z,73.95
2022-08-24T06:50:09.575Z,73.55
2022-08-24T06:50:43.383Z,73.82
2022-08-24T06:51:18.328Z,74.50
2022-08-24T06:51:53.453Z,74.88
2022-08-24T06:52:26.765Z,74.13
2022-08-24T06:53:00.818Z,75.00
2022-08-24T06:53:36.293Z,74.95
2022-08-24T06:54:09.210Z,73.55
2022-08-24T06:54:43.040Z,74.07
2022-08-24T06:55:15.701Z,73.75
2022-08-24T06:55:50.639Z,73.55
2022-08-24T06:56:24.298Z,74.53
2022-08-24T06:56:58.621Z,74.60
2022-08-24T06:57:32.270Z,74.80
2022-08-24T06:58:04.768Z,74.30
2022-08-24T06:58:39.006Z,74.50
2022-08-24T06:59:16.714Z,75.37
2022-08-24T06:59:49.955Z,74.18
2022-08-24T07:00:25.072Z,74.47
2022-08-24T07:00:59.341Z,74.00
2022-08-24T07:01:32.703Z,74.63
2022-08-24T07:02:08.883Z,72.78
2022-08-24T07:02:42.253Z,73.32
2022-08-24T07:03:16.238Z,73.40
2022-08-24T07:03:59.626Z,73.70
2022-08-24T07:04:58.337Z,72.90
2022-08-24T07:05:52.657Z,71.90
2022-08-24T07:06:45.446Z,71.90
2022-08-24T07:07:20.892Z,72.47
2022-08-24T07:07:54.166Z,72.57
2022-08-24T07:08:26.734Z,71.38
2022-08-24T07:09:00.248Z,72.68
2022-08-24T07:09:33.603Z,72.32
2022-08-24T07:10:09.345Z,71.45
2022-08-24T07:10:42.653Z,71.53
2022-08-24T07:11:17.999Z,71.25
2022-08-24T07:11:51.781Z,71.43
2022-08-24T07:12:24.253Z,70.97
2022-08-24T07:12:58.152Z,71.40
2022-08-24T07:13:31.938Z,71.57
2022-08-24T07:14:06.877Z,70.65
2022-08-24T07:14:40.447Z,71.43
2022-08-24T07:15:16.300Z,70.82
2022-08-24T07:15:53.527Z,71.22
2022-08-24T07:16:27.489Z,72.10
2022-08-24T07:17:04.840Z,70.95
2022-08-24T07:17:39.297Z,70.50
2022-08-24T07:18:12.883Z,71.38
2022-08-24T07:18:50.216Z,71.97
2022-08-24T07:19:25.687Z,70.28
2022-08-24T07:19:59.228Z,70.47
2022-08-24T07:20:54.546Z,70.90
2022-08-24T07:21:37.838Z,70.05
2022-08-24T07:22:10.835Z,70.90
2022-08-24T07:22:43.486Z,71.10
2022-08-24T07:23:17.948Z,70.67
2022-08-24T07:23:54.995Z,70.30
2022-08-24T07:24:28.951Z,70.97
2022-08-24T07:25:04.165Z,70.55
2022-08-24T07:25:37.289Z,70.82
2022-08-24T07:26:21.013Z,70.65
2022-08-24T07:26:56.332Z,70.53
2022-08-24T07:27:29.603Z,71.25
2022-08-24T07:28:08.007Z,70.75
2022-08-24T07:28:44.499Z,70.88
2022-08-24T07:30:26.872Z,70.60
2022-08-24T07:31:02.100Z,70.78
2022-08-24T07:31:39.356Z,69.72
2022-08-24T07:32:32.719Z,70.45
2022-08-24T07:33:06.365Z,69.85
2022-08-24T07:33:39.203Z,70.13
2022-08-24T07:34:13.139Z,70.28
2022-08-24T07:34:45.941Z,70.28
2022-08-24T07:35:18.757Z,69.85
2022-08-24T07:35:52.288Z,69.90
2022-08-24T07:36:28.799Z,71.20
2022-08-24T07:37:02.085Z,70.47
2022-08-24T07:37:41.430Z,70.05